sensor_id;sensor_type;location;lat;lon;timestamp;temperature;humidity
32640;DHT22;19049;52.524;11.468;2022-07-18T00:00:42;13.10;64.20
32640;DHT22;19049;52.524;11.468;2022-07-18T00:03:08;13.00;64.40
32640;DHT22;19049;52.524;11.468;2022-07-18T00:05:33;13.00;64.50
32640;DHT22;19049;52.524;11.468;2022-07-18T00:07:59;12.90;64.50
32640;DHT22;19049;52.524;11.468;2022-07-18T00:10:25;12.90;64.50
32640;DHT22;19049;52.524;11.468;2022-07-18T00:12:50;12.90;64.60
32640;DHT22;19049;52.524;11.468;2022-07-18T00:15:16;12.80;64.70
32640;DHT22;19049;52.524;11.468;2022-07-18T00:17:42;12.80;65.00
32640;DHT22;19049;52.524;11.468;2022-07-18T00:20:09;12.70;65.00
32640;DHT22;19049;52.524;11.468;2022-07-18T00:22:35;12.70;65.50
32640;DHT22;19049;52.524;11.468;2022-07-18T00:25:00;12.70;65.30
32640;DHT22;19049;52.524;11.468;2022-07-18T00:27:26;12.60;65.50
32640;DHT22;19049;52.524;11.468;2022-07-18T00:29:51;12.60;66.10
32640;DHT22;19049;52.524;11.468;2022-07-18T00:32:17;12.60;66.90
32640;DHT22;19049;52.524;11.468;2022-07-18T00:34:43;12.60;66.30
32640;DHT22;19049;52.524;11.468;2022-07-18T00:37:08;12.60;66.40
32640;DHT22;19049;52.524;11.468;2022-07-18T00:39:34;12.50;66.30
32640;DHT22;19049;52.524;11.468;2022-07-18T00:42:00;12.50;66.40
32640;DHT22;19049;52.524;11.468;2022-07-18T00:44:27;12.40;66.30
32640;DHT22;19049;52.524;11.468;2022-07-18T00:46:59;12.40;66.50
32640;DHT22;19049;52.524;11.468;2022-07-18T00:49:25;12.30;66.50
32640;DHT22;19049;52.524;11.468;2022-07-18T00:51:51;12.30;66.60
32640;DHT22;19049;52.524;11.468;2022-07-18T00:54:18;12.30;67.40
32640;DHT22;19049;52.524;11.468;2022-07-18T00:56:44;12.20;67.00
32640;DHT22;19049;52.524;11.468;2022-07-18T00:59:11;12.10;67.20
32640;DHT22;19049;52.524;11.468;2022-07-18T01:01:38;12.10;67.40
32640;DHT22;19049;52.524;11.468;2022-07-18T01:04:18;12.10;67.70
32640;DHT22;19049;52.524;11.468;2022-07-18T01:06:46;12.00;67.90
32640;DHT22;19049;52.524;11.468;2022-07-18T01:09:12;12.00;67.30
32640;DHT22;19049;52.524;11.468;2022-07-18T01:11:38;12.00;66.90
32640;DHT22;19049;52.524;11.468;2022-07-18T01:14:05;11.90;66.80
32640;DHT22;19049;52.524;11.468;2022-07-18T01:16:31;11.90;67.50
32640;DHT22;19049;52.524;11.468;2022-07-18T01:18:58;11.90;67.60
32640;DHT22;19049;52.524;11.468;2022-07-18T01:21:24;11.90;67.90
32640;DHT22;19049;52.524;11.468;2022-07-18T01:23:50;11.90;68.00
32640;DHT22;19049;52.524;11.468;2022-07-18T01:26:16;11.90;67.70
32640;DHT22;19049;52.524;11.468;2022-07-18T01:28:43;11.80;67.60
32640;DHT22;19049;52.524;11.468;2022-07-18T01:31:09;11.80;67.80
32640;DHT22;19049;52.524;11.468;2022-07-18T01:33:35;11.80;68.00
32640;DHT22;19049;52.524;11.468;2022-07-18T01:36:03;11.80;68.50
32640;DHT22;19049;52.524;11.468;2022-07-18T01:38:31;11.80;68.80
32640;DHT22;19049;52.524;11.468;2022-07-18T01:40:58;11.80;68.10
32640;DHT22;19049;52.524;11.468;2022-07-18T01:43:26;11.80;68.00
32640;DHT22;19049;52.524;11.468;2022-07-18T01:45:53;11.80;68.50
32640;DHT22;19049;52.524;11.468;2022-07-18T01:48:19;11.80;68.60
32640;DHT22;19049;52.524;11.468;2022-07-18T01:50:46;11.80;69.00
32640;DHT22;19049;52.524;11.468;2022-07-18T01:53:12;11.80;69.00
32640;DHT22;19049;52.524;11.468;2022-07-18T01:55:38;11.80;68.90
32640;DHT22;19049;52.524;11.468;2022-07-18T01:58:04;11.70;68.80
32640;DHT22;19049;52.524;11.468;2022-07-18T02:00:30;11.70;68.90
32640;DHT22;19049;52.524;11.468;2022-07-18T02:02:56;11.70;68.90
32640;DHT22;19049;52.524;11.468;2022-07-18T02:05:21;11.60;68.90
32640;DHT22;19049;52.524;11.468;2022-07-18T02:07:47;11.60;68.90
32640;DHT22;19049;52.524;11.468;2022-07-18T02:10:15;11.50;68.90
32640;DHT22;19049;52.524;11.468;2022-07-18T02:12:41;11.50;69.10
32640;DHT22;19049;52.524;11.468;2022-07-18T02:15:09;11.40;69.10
32640;DHT22;19049;52.524;11.468;2022-07-18T02:17:35;11.40;69.40
32640;DHT22;19049;52.524;11.468;2022-07-18T02:20:03;11.30;69.40
32640;DHT22;19049;52.524;11.468;2022-07-18T02:22:29;11.30;69.90
32640;DHT22;19049;52.524;11.468;2022-07-18T02:24:54;11.30;70.00
32640;DHT22;19049;52.524;11.468;2022-07-18T02:27:20;11.30;70.10
32640;DHT22;19049;52.524;11.468;2022-07-18T02:29:46;11.20;70.10
32640;DHT22;19049;52.524;11.468;2022-07-18T02:32:12;11.20;70.30
32640;DHT22;19049;52.524;11.468;2022-07-18T02:34:37;11.20;70.00
32640;DHT22;19049;52.524;11.468;2022-07-18T02:37:03;11.20;70.30
32640;DHT22;19049;52.524;11.468;2022-07-18T02:39:29;11.10;71.10
32640;DHT22;19049;52.524;11.468;2022-07-18T02:41:55;11.10;70.40
32640;DHT22;19049;52.524;11.468;2022-07-18T02:44:21;11.10;71.30
32640;DHT22;19049;52.524;11.468;2022-07-18T02:46:47;11.10;71.10
32640;DHT22;19049;52.524;11.468;2022-07-18T02:49:13;11.10;70.50
32640;DHT22;19049;52.524;11.468;2022-07-18T02:52:02;11.10;70.50
32640;DHT22;19049;52.524;11.468;2022-07-18T02:54:29;11.10;70.50
32640;DHT22;19049;52.524;11.468;2022-07-18T02:56:55;11.10;70.40
32640;DHT22;19049;52.524;11.468;2022-07-18T02:59:21;11.10;70.50
32640;DHT22;19049;52.524;11.468;2022-07-18T03:01:47;11.10;70.80
32640;DHT22;19049;52.524;11.468;2022-07-18T03:04:14;11.10;70.70
32640;DHT22;19049;52.524;11.468;2022-07-18T03:06:40;11.00;70.80
32640;DHT22;19049;52.524;11.468;2022-07-18T03:09:05;11.00;70.90
32640;DHT22;19049;52.524;11.468;2022-07-18T03:11:31;11.00;70.60
32640;DHT22;19049;52.524;11.468;2022-07-18T03:13:57;11.00;70.30
32640;DHT22;19049;52.524;11.468;2022-07-18T03:16:23;10.90;69.90
32640;DHT22;19049;52.524;11.468;2022-07-18T03:18:49;10.90;70.00
32640;DHT22;19049;52.524;11.468;2022-07-18T03:21:14;10.90;70.20
32640;DHT22;19049;52.524;11.468;2022-07-18T03:23:40;10.90;70.70
32640;DHT22;19049;52.524;11.468;2022-07-18T03:26:05;10.90;71.30
32640;DHT22;19049;52.524;11.468;2022-07-18T03:28:31;10.90;71.60
32640;DHT22;19049;52.524;11.468;2022-07-18T03:30:56;11.00;72.60
32640;DHT22;19049;52.524;11.468;2022-07-18T03:33:27;11.00;71.80
32640;DHT22;19049;52.524;11.468;2022-07-18T03:35:53;10.90;71.70
32640;DHT22;19049;52.524;11.468;2022-07-18T03:38:18;10.90;71.60
32640;DHT22;19049;52.524;11.468;2022-07-18T03:40:44;10.90;71.50
32640;DHT22;19049;52.524;11.468;2022-07-18T03:43:10;10.90;71.50
32640;DHT22;19049;52.524;11.468;2022-07-18T03:45:35;10.90;71.50
32640;DHT22;19049;52.524;11.468;2022-07-18T03:48:01;10.90;71.60
32640;DHT22;19049;52.524;11.468;2022-07-18T03:50:27;10.90;71.50
32640;DHT22;19049;52.524;11.468;2022-07-18T03:52:53;10.80;72.70
32640;DHT22;19049;52.524;11.468;2022-07-18T03:55:19;10.80;72.20
32640;DHT22;19049;52.524;11.468;2022-07-18T03:57:44;10.90;72.60
32640;DHT22;19049;52.524;11.468;2022-07-18T04:00:11;10.90;72.40
32640;DHT22;19049;52.524;11.468;2022-07-18T04:02:41;10.90;72.70
32640;DHT22;19049;52.524;11.468;2022-07-18T04:05:08;11.00;72.40
32640;DHT22;19049;52.524;11.468;2022-07-18T04:07:34;11.00;72.30
32640;DHT22;19049;52.524;11.468;2022-07-18T04:10:00;11.00;72.40
32640;DHT22;19049;52.524;11.468;2022-07-18T04:12:26;11.10;72.40
32640;DHT22;19049;52.524;11.468;2022-07-18T04:14:52;11.20;72.90
32640;DHT22;19049;52.524;11.468;2022-07-18T04:17:17;11.20;72.00
32640;DHT22;19049;52.524;11.468;2022-07-18T04:19:43;11.30;72.30
32640;DHT22;19049;52.524;11.468;2022-07-18T04:22:08;11.40;72.90
32640;DHT22;19049;52.524;11.468;2022-07-18T04:24:34;11.60;73.00
32640;DHT22;19049;52.524;11.468;2022-07-18T04:27:00;11.80;73.80
32640;DHT22;19049;52.524;11.468;2022-07-18T04:29:25;12.10;74.20
32640;DHT22;19049;52.524;11.468;2022-07-18T04:31:51;12.40;74.40
32640;DHT22;19049;52.524;11.468;2022-07-18T04:34:17;12.80;74.10
32640;DHT22;19049;52.524;11.468;2022-07-18T04:36:43;13.10;73.60
32640;DHT22;19049;52.524;11.468;2022-07-18T04:39:08;13.50;73.40
32640;DHT22;19049;52.524;11.468;2022-07-18T04:41:36;13.80;73.90
32640;DHT22;19049;52.524;11.468;2022-07-18T04:44:02;14.10;73.00
32640;DHT22;19049;52.524;11.468;2022-07-18T04:46:28;14.40;72.50
32640;DHT22;19049;52.524;11.468;2022-07-18T04:48:54;14.70;72.20
32640;DHT22;19049;52.524;11.468;2022-07-18T04:51:19;15.00;71.60
32640;DHT22;19049;52.524;11.468;2022-07-18T04:53:45;15.30;71.20
32640;DHT22;19049;52.524;11.468;2022-07-18T04:56:10;15.60;70.70
32640;DHT22;19049;52.524;11.468;2022-07-18T04:58:36;15.90;70.30
32640;DHT22;19049;52.524;11.468;2022-07-18T05:01:02;16.10;70.10
32640;DHT22;19049;52.524;11.468;2022-07-18T05:03:28;16.40;70.10
32640;DHT22;19049;52.524;11.468;2022-07-18T05:05:53;16.70;70.20
32640;DHT22;19049;52.524;11.468;2022-07-18T05:08:22;17.00;69.80
32640;DHT22;19049;52.524;11.468;2022-07-18T05:10:48;17.40;69.50
32640;DHT22;19049;52.524;11.468;2022-07-18T05:13:13;17.70;69.20
32640;DHT22;19049;52.524;11.468;2022-07-18T05:15:42;18.10;69.30
32640;DHT22;19049;52.524;11.468;2022-07-18T05:18:07;18.50;69.10
32640;DHT22;19049;52.524;11.468;2022-07-18T05:20:33;18.80;68.50
32640;DHT22;19049;52.524;11.468;2022-07-18T05:22:58;19.20;68.10
32640;DHT22;19049;52.524;11.468;2022-07-18T05:25:24;19.60;67.30
32640;DHT22;19049;52.524;11.468;2022-07-18T05:27:51;20.00;66.70
32640;DHT22;19049;52.524;11.468;2022-07-18T05:30:17;20.40;66.10
32640;DHT22;19049;52.524;11.468;2022-07-18T05:32:44;20.80;65.50
32640;DHT22;19049;52.524;11.468;2022-07-18T05:35:13;21.10;64.90
32640;DHT22;19049;52.524;11.468;2022-07-18T05:37:42;21.50;63.60
32640;DHT22;19049;52.524;11.468;2022-07-18T05:40:10;21.80;63.40
32640;DHT22;19049;52.524;11.468;2022-07-18T05:42:36;22.10;62.90
32640;DHT22;19049;52.524;11.468;2022-07-18T05:45:02;22.40;62.90
32640;DHT22;19049;52.524;11.468;2022-07-18T05:47:27;22.60;61.90
32640;DHT22;19049;52.524;11.468;2022-07-18T05:49:53;22.90;60.80
32640;DHT22;19049;52.524;11.468;2022-07-18T05:52:18;23.20;59.90
32640;DHT22;19049;52.524;11.468;2022-07-18T05:54:44;23.40;59.70
32640;DHT22;19049;52.524;11.468;2022-07-18T05:57:10;23.60;59.60
32640;DHT22;19049;52.524;11.468;2022-07-18T05:59:35;23.80;59.30
32640;DHT22;19049;52.524;11.468;2022-07-18T06:02:06;24.00;58.70
32640;DHT22;19049;52.524;11.468;2022-07-18T06:04:31;24.20;59.00
32640;DHT22;19049;52.524;11.468;2022-07-18T06:06:59;24.40;58.00
32640;DHT22;19049;52.524;11.468;2022-07-18T06:09:25;24.70;57.60
32640;DHT22;19049;52.524;11.468;2022-07-18T06:11:51;25.00;58.00
32640;DHT22;19049;52.524;11.468;2022-07-18T06:14:17;25.20;57.10
32640;DHT22;19049;52.524;11.468;2022-07-18T06:16:44;25.50;56.50
32640;DHT22;19049;52.524;11.468;2022-07-18T06:19:10;25.70;55.50
32640;DHT22;19049;52.524;11.468;2022-07-18T06:21:40;25.80;55.00
32640;DHT22;19049;52.524;11.468;2022-07-18T06:24:08;25.80;54.20
32640;DHT22;19049;52.524;11.468;2022-07-18T06:26:34;25.80;54.00
32640;DHT22;19049;52.524;11.468;2022-07-18T06:28:59;25.80;53.80
32640;DHT22;19049;52.524;11.468;2022-07-18T06:31:25;25.70;53.50
32640;DHT22;19049;52.524;11.468;2022-07-18T06:33:50;25.60;53.70
32640;DHT22;19049;52.524;11.468;2022-07-18T06:36:16;25.60;53.90
32640;DHT22;19049;52.524;11.468;2022-07-18T06:38:43;25.60;53.30
32640;DHT22;19049;52.524;11.468;2022-07-18T06:41:11;25.60;53.70
32640;DHT22;19049;52.524;11.468;2022-07-18T06:43:37;25.50;53.50
32640;DHT22;19049;52.524;11.468;2022-07-18T06:46:04;25.60;53.70
32640;DHT22;19049;52.524;11.468;2022-07-18T06:48:29;25.60;53.70
32640;DHT22;19049;52.524;11.468;2022-07-18T06:51:00;25.70;53.40
32640;DHT22;19049;52.524;11.468;2022-07-18T06:53:27;25.80;53.50
32640;DHT22;19049;52.524;11.468;2022-07-18T06:55:53;25.80;53.20
32640;DHT22;19049;52.524;11.468;2022-07-18T06:58:19;25.90;53.40
32640;DHT22;19049;52.524;11.468;2022-07-18T07:00:44;26.20;53.30
32640;DHT22;19049;52.524;11.468;2022-07-18T07:03:10;26.40;53.20
32640;DHT22;19049;52.524;11.468;2022-07-18T07:05:36;26.70;53.60
32640;DHT22;19049;52.524;11.468;2022-07-18T07:08:01;27.00;52.70
32640;DHT22;19049;52.524;11.468;2022-07-18T07:10:27;27.30;52.40
32640;DHT22;19049;52.524;11.468;2022-07-18T07:12:53;27.60;51.50
32640;DHT22;19049;52.524;11.468;2022-07-18T07:15:22;27.80;49.80
32640;DHT22;19049;52.524;11.468;2022-07-18T07:17:48;28.00;49.90
32640;DHT22;19049;52.524;11.468;2022-07-18T07:20:14;28.20;49.60
32640;DHT22;19049;52.524;11.468;2022-07-18T07:22:50;28.40;49.30
32640;DHT22;19049;52.524;11.468;2022-07-18T07:25:17;28.60;48.80
32640;DHT22;19049;52.524;11.468;2022-07-18T07:27:45;28.80;48.30
32640;DHT22;19049;52.524;11.468;2022-07-18T07:30:13;28.90;47.40
32640;DHT22;19049;52.524;11.468;2022-07-18T07:32:41;28.90;47.10
32640;DHT22;19049;52.524;11.468;2022-07-18T07:35:08;28.90;47.00
32640;DHT22;19049;52.524;11.468;2022-07-18T07:37:42;29.00;46.50
32640;DHT22;19049;52.524;11.468;2022-07-18T07:40:08;29.00;46.00
32640;DHT22;19049;52.524;11.468;2022-07-18T07:42:34;29.00;46.00
32640;DHT22;19049;52.524;11.468;2022-07-18T07:45:00;29.00;45.80
32640;DHT22;19049;52.524;11.468;2022-07-18T07:47:26;29.10;45.80
32640;DHT22;19049;52.524;11.468;2022-07-18T07:49:54;29.30;45.70
32640;DHT22;19049;52.524;11.468;2022-07-18T07:52:20;29.50;45.40
32640;DHT22;19049;52.524;11.468;2022-07-18T07:54:49;29.70;44.90
32640;DHT22;19049;52.524;11.468;2022-07-18T07:57:15;29.90;44.80
32640;DHT22;19049;52.524;11.468;2022-07-18T07:59:43;30.10;43.80
32640;DHT22;19049;52.524;11.468;2022-07-18T08:02:10;30.20;42.50
32640;DHT22;19049;52.524;11.468;2022-07-18T08:04:35;30.30;43.10
32640;DHT22;19049;52.524;11.468;2022-07-18T08:07:01;30.40;42.60
32640;DHT22;19049;52.524;11.468;2022-07-18T08:09:27;30.50;42.70
32640;DHT22;19049;52.524;11.468;2022-07-18T08:11:55;30.70;42.70
32640;DHT22;19049;52.524;11.468;2022-07-18T08:14:21;30.80;40.60
32640;DHT22;19049;52.524;11.468;2022-07-18T08:16:46;31.00;42.10
32640;DHT22;19049;52.524;11.468;2022-07-18T08:19:12;31.20;41.10
32640;DHT22;19049;52.524;11.468;2022-07-18T08:21:39;31.30;39.90
32640;DHT22;19049;52.524;11.468;2022-07-18T08:24:05;31.40;39.50
32640;DHT22;19049;52.524;11.468;2022-07-18T08:26:31;31.40;39.30
32640;DHT22;19049;52.524;11.468;2022-07-18T08:28:59;31.40;38.50
32640;DHT22;19049;52.524;11.468;2022-07-18T08:31:25;31.40;39.30
32640;DHT22;19049;52.524;11.468;2022-07-18T08:33:50;31.40;39.30
32640;DHT22;19049;52.524;11.468;2022-07-18T08:36:16;31.50;39.60
32640;DHT22;19049;52.524;11.468;2022-07-18T08:38:42;31.70;39.00
32640;DHT22;19049;52.524;11.468;2022-07-18T08:41:08;31.80;38.40
32640;DHT22;19049;52.524;11.468;2022-07-18T08:43:42;31.90;38.30
32640;DHT22;19049;52.524;11.468;2022-07-18T08:46:08;32.00;37.80
32640;DHT22;19049;52.524;11.468;2022-07-18T08:48:37;32.00;37.80
32640;DHT22;19049;52.524;11.468;2022-07-18T08:51:03;32.00;37.90
32640;DHT22;19049;52.524;11.468;2022-07-18T08:53:29;32.10;37.30
32640;DHT22;19049;52.524;11.468;2022-07-18T08:55:58;32.20;37.70
32640;DHT22;19049;52.524;11.468;2022-07-18T08:58:27;32.20;36.70
32640;DHT22;19049;52.524;11.468;2022-07-18T09:00:52;32.20;35.80
32640;DHT22;19049;52.524;11.468;2022-07-18T09:03:18;32.20;36.20
32640;DHT22;19049;52.524;11.468;2022-07-18T09:05:44;32.20;36.70
32640;DHT22;19049;52.524;11.468;2022-07-18T09:10:54;32.20;36.20
32640;DHT22;19049;52.524;11.468;2022-07-18T09:13:38;32.30;36.70
32640;DHT22;19049;52.524;11.468;2022-07-18T09:16:07;32.40;36.90
32640;DHT22;19049;52.524;11.468;2022-07-18T09:18:42;32.50;36.40
32640;DHT22;19049;52.524;11.468;2022-07-18T09:21:14;32.60;35.00
32640;DHT22;19049;52.524;11.468;2022-07-18T09:23:46;32.60;34.70
32640;DHT22;19049;52.524;11.468;2022-07-18T09:26:43;32.70;34.60
32640;DHT22;19049;52.524;11.468;2022-07-18T09:29:15;32.70;34.00
32640;DHT22;19049;52.524;11.468;2022-07-18T09:31:49;32.80;34.70
32640;DHT22;19049;52.524;11.468;2022-07-18T09:34:32;32.90;34.60
32640;DHT22;19049;52.524;11.468;2022-07-18T09:36:58;33.00;33.70
32640;DHT22;19049;52.524;11.468;2022-07-18T09:39:24;33.00;33.10
32640;DHT22;19049;52.524;11.468;2022-07-18T09:41:49;33.00;32.80
32640;DHT22;19049;52.524;11.468;2022-07-18T09:44:18;33.00;32.70
32640;DHT22;19049;52.524;11.468;2022-07-18T09:46:59;33.00;32.60
32640;DHT22;19049;52.524;11.468;2022-07-18T09:49:29;33.00;32.00
32640;DHT22;19049;52.524;11.468;2022-07-18T09:52:06;33.00;32.50
32640;DHT22;19049;52.524;11.468;2022-07-18T09:54:40;33.00;30.00
32640;DHT22;19049;52.524;11.468;2022-07-18T09:57:06;32.90;31.50
32640;DHT22;19049;52.524;11.468;2022-07-18T09:59:32;32.90;31.60
32640;DHT22;19049;52.524;11.468;2022-07-18T10:01:59;33.00;31.90
32640;DHT22;19049;52.524;11.468;2022-07-18T10:04:24;33.00;31.90
32640;DHT22;19049;52.524;11.468;2022-07-18T10:06:50;33.00;31.50
32640;DHT22;19049;52.524;11.468;2022-07-18T10:09:16;33.00;31.40
32640;DHT22;19049;52.524;11.468;2022-07-18T10:11:42;33.00;31.50
32640;DHT22;19049;52.524;11.468;2022-07-18T10:14:08;33.00;31.30
32640;DHT22;19049;52.524;11.468;2022-07-18T10:16:35;33.00;30.50
32640;DHT22;19049;52.524;11.468;2022-07-18T10:19:02;33.00;30.90
32640;DHT22;19049;52.524;11.468;2022-07-18T10:21:28;32.90;30.90
32640;DHT22;19049;52.524;11.468;2022-07-18T10:23:56;32.90;31.10
32640;DHT22;19049;52.524;11.468;2022-07-18T10:26:27;32.90;31.50
32640;DHT22;19049;52.524;11.468;2022-07-18T10:31:32;33.00;30.60
32640;DHT22;19049;52.524;11.468;2022-07-18T10:39:21;33.00;31.00
32640;DHT22;19049;52.524;11.468;2022-07-18T10:57:35;33.50;29.70
32640;DHT22;19049;52.524;11.468;2022-07-18T11:02:38;33.60;30.00
32640;DHT22;19049;52.524;11.468;2022-07-18T11:16:09;33.90;29.40
32640;DHT22;19049;52.524;11.468;2022-07-18T11:21:31;34.00;29.70
32640;DHT22;19049;52.524;11.468;2022-07-18T11:24:02;34.10;29.10
32640;DHT22;19049;52.524;11.468;2022-07-18T11:26:29;34.20;29.30
32640;DHT22;19049;52.524;11.468;2022-07-18T11:28:58;34.30;29.20
32640;DHT22;19049;52.524;11.468;2022-07-18T11:31:25;34.50;29.60
32640;DHT22;19049;52.524;11.468;2022-07-18T11:33:51;34.60;29.80
32640;DHT22;19049;52.524;11.468;2022-07-18T11:36:19;34.80;29.70
32640;DHT22;19049;52.524;11.468;2022-07-18T11:38:55;34.90;29.40
32640;DHT22;19049;52.524;11.468;2022-07-18T11:41:22;34.90;28.40
32640;DHT22;19049;52.524;11.468;2022-07-18T11:43:49;34.90;28.70
32640;DHT22;19049;52.524;11.468;2022-07-18T11:46:19;34.80;28.80
32640;DHT22;19049;52.524;11.468;2022-07-18T11:49:00;34.80;28.60
32640;DHT22;19049;52.524;11.468;2022-07-18T11:54:05;34.90;28.50
32640;DHT22;19049;52.524;11.468;2022-07-18T11:56:31;35.00;28.70
32640;DHT22;19049;52.524;11.468;2022-07-18T11:58:56;35.10;28.40
32640;DHT22;19049;52.524;11.468;2022-07-18T12:01:30;35.10;28.40
32640;DHT22;19049;52.524;11.468;2022-07-18T12:03:57;35.10;27.90
32640;DHT22;19049;52.524;11.468;2022-07-18T12:06:23;35.20;27.80
32640;DHT22;19049;52.524;11.468;2022-07-18T12:08:51;35.20;27.90
32640;DHT22;19049;52.524;11.468;2022-07-18T12:16:29;35.60;27.60
32640;DHT22;19049;52.524;11.468;2022-07-18T12:18:58;35.70;28.00
32640;DHT22;19049;52.524;11.468;2022-07-18T12:21:24;35.80;27.00
32640;DHT22;19049;52.524;11.468;2022-07-18T12:23:51;35.90;27.10
32640;DHT22;19049;52.524;11.468;2022-07-18T12:26:31;35.90;27.40
32640;DHT22;19049;52.524;11.468;2022-07-18T12:29:06;36.00;27.40
32640;DHT22;19049;52.524;11.468;2022-07-18T12:31:41;36.10;27.70
32640;DHT22;19049;52.524;11.468;2022-07-18T12:34:12;36.30;26.90
32640;DHT22;19049;52.524;11.468;2022-07-18T12:36:55;36.50;27.30
32640;DHT22;19049;52.524;11.468;2022-07-18T12:39:30;36.60;27.50
32640;DHT22;19049;52.524;11.468;2022-07-18T12:41:56;36.70;26.60
32640;DHT22;19049;52.524;11.468;2022-07-18T12:44:26;36.80;27.20
32640;DHT22;19049;52.524;11.468;2022-07-18T12:46:52;36.90;26.10
32640;DHT22;19049;52.524;11.468;2022-07-18T12:49:25;36.90;26.20
32640;DHT22;19049;52.524;11.468;2022-07-18T12:51:51;37.00;25.90
32640;DHT22;19049;52.524;11.468;2022-07-18T12:54:17;36.90;26.10
32640;DHT22;19049;52.524;11.468;2022-07-18T12:56:43;36.90;26.00
32640;DHT22;19049;52.524;11.468;2022-07-18T12:59:09;36.90;26.30
32640;DHT22;19049;52.524;11.468;2022-07-18T13:01:35;37.00;26.30
32640;DHT22;19049;52.524;11.468;2022-07-18T13:04:00;37.00;26.00
32640;DHT22;19049;52.524;11.468;2022-07-18T13:06:26;37.00;26.20
32640;DHT22;19049;52.524;11.468;2022-07-18T13:08:52;37.10;25.70
32640;DHT22;19049;52.524;11.468;2022-07-18T13:11:17;37.20;25.90
32640;DHT22;19049;52.524;11.468;2022-07-18T13:13:43;37.20;25.20
32640;DHT22;19049;52.524;11.468;2022-07-18T13:16:11;37.30;25.30
32640;DHT22;19049;52.524;11.468;2022-07-18T13:18:36;37.30;25.60
32640;DHT22;19049;52.524;11.468;2022-07-18T13:21:02;37.30;25.70
32640;DHT22;19049;52.524;11.468;2022-07-18T13:23:30;37.30;25.60
32640;DHT22;19049;52.524;11.468;2022-07-18T13:25:56;37.20;25.50
32640;DHT22;19049;52.524;11.468;2022-07-18T13:28:21;37.00;25.40
32640;DHT22;19049;52.524;11.468;2022-07-18T13:30:47;36.90;25.10
32640;DHT22;19049;52.524;11.468;2022-07-18T13:33:12;36.70;25.50
32640;DHT22;19049;52.524;11.468;2022-07-18T13:35:38;36.40;25.50
32640;DHT22;19049;52.524;11.468;2022-07-18T13:38:04;36.10;25.70
32640;DHT22;19049;52.524;11.468;2022-07-18T13:40:30;35.90;25.70
32640;DHT22;19049;52.524;11.468;2022-07-18T13:42:56;35.70;25.80
32640;DHT22;19049;52.524;11.468;2022-07-18T13:45:23;35.50;26.10
32640;DHT22;19049;52.524;11.468;2022-07-18T13:47:56;35.40;25.90
32640;DHT22;19049;52.524;11.468;2022-07-18T13:50:24;35.30;26.20
32640;DHT22;19049;52.524;11.468;2022-07-18T13:52:50;35.30;26.40
32640;DHT22;19049;52.524;11.468;2022-07-18T13:55:15;35.40;26.10
32640;DHT22;19049;52.524;11.468;2022-07-18T13:57:41;35.40;26.30
32640;DHT22;19049;52.524;11.468;2022-07-18T14:00:09;35.50;26.50
32640;DHT22;19049;52.524;11.468;2022-07-18T14:02:35;35.50;26.20
32640;DHT22;19049;52.524;11.468;2022-07-18T14:05:00;35.50;25.90
32640;DHT22;19049;52.524;11.468;2022-07-18T14:07:26;35.50;26.30
32640;DHT22;19049;52.524;11.468;2022-07-18T14:09:52;35.40;26.40
32640;DHT22;19049;52.524;11.468;2022-07-18T14:12:17;35.40;26.30
32640;DHT22;19049;52.524;11.468;2022-07-18T14:14:43;35.30;26.00
32640;DHT22;19049;52.524;11.468;2022-07-18T14:17:08;35.30;25.80
32640;DHT22;19049;52.524;11.468;2022-07-18T14:19:37;35.20;26.50
32640;DHT22;19049;52.524;11.468;2022-07-18T14:22:03;35.10;26.40
32640;DHT22;19049;52.524;11.468;2022-07-18T14:24:28;35.20;26.60
32640;DHT22;19049;52.524;11.468;2022-07-18T14:26:54;35.30;26.40
32640;DHT22;19049;52.524;11.468;2022-07-18T14:29:20;35.50;26.80
32640;DHT22;19049;52.524;11.468;2022-07-18T14:31:45;35.80;26.00
32640;DHT22;19049;52.524;11.468;2022-07-18T14:34:13;36.00;25.80
32640;DHT22;19049;52.524;11.468;2022-07-18T14:36:38;36.20;25.80
32640;DHT22;19049;52.524;11.468;2022-07-18T14:39:05;36.30;26.30
32640;DHT22;19049;52.524;11.468;2022-07-18T14:41:30;36.40;25.60
32640;DHT22;19049;52.524;11.468;2022-07-18T14:43:56;36.50;25.60
32640;DHT22;19049;52.524;11.468;2022-07-18T14:46:22;36.60;25.70
32640;DHT22;19049;52.524;11.468;2022-07-18T14:48:47;36.90;25.40
32640;DHT22;19049;52.524;11.468;2022-07-18T14:51:17;37.20;24.70
32640;DHT22;19049;52.524;11.468;2022-07-18T14:53:43;37.60;24.80
32640;DHT22;19049;52.524;11.468;2022-07-18T14:56:08;37.90;24.50
32640;DHT22;19049;52.524;11.468;2022-07-18T14:58:34;38.10;24.30
32640;DHT22;19049;52.524;11.468;2022-07-18T15:01:00;38.30;23.90
32640;DHT22;19049;52.524;11.468;2022-07-18T15:03:25;38.50;23.60
32640;DHT22;19049;52.524;11.468;2022-07-18T15:05:54;38.60;23.80
32640;DHT22;19049;52.524;11.468;2022-07-18T15:08:20;38.80;23.30
32640;DHT22;19049;52.524;11.468;2022-07-18T15:10:45;38.80;23.40
32640;DHT22;19049;52.524;11.468;2022-07-18T15:13:11;39.00;23.40
32640;DHT22;19049;52.524;11.468;2022-07-18T15:15:37;39.00;22.60
32640;DHT22;19049;52.524;11.468;2022-07-18T15:18:02;39.10;23.20
32640;DHT22;19049;52.524;11.468;2022-07-18T15:20:30;39.20;23.60
32640;DHT22;19049;52.524;11.468;2022-07-18T15:22:56;39.30;23.30
32640;DHT22;19049;52.524;11.468;2022-07-18T15:25:22;39.40;23.00
32640;DHT22;19049;52.524;11.468;2022-07-18T15:27:50;39.60;23.20
32640;DHT22;19049;52.524;11.468;2022-07-18T15:30:16;39.60;23.00
32640;DHT22;19049;52.524;11.468;2022-07-18T15:32:42;39.50;22.60
32640;DHT22;19049;52.524;11.468;2022-07-18T15:35:07;39.40;22.60
32640;DHT22;19049;52.524;11.468;2022-07-18T15:37:33;39.30;22.10
32640;DHT22;19049;52.524;11.468;2022-07-18T15:39:59;39.00;22.50
32640;DHT22;19049;52.524;11.468;2022-07-18T15:42:24;38.70;22.30
32640;DHT22;19049;52.524;11.468;2022-07-18T15:44:50;38.40;22.30
32640;DHT22;19049;52.524;11.468;2022-07-18T15:47:16;38.20;22.40
32640;DHT22;19049;52.524;11.468;2022-07-18T15:49:41;37.90;22.60
32640;DHT22;19049;52.524;11.468;2022-07-18T15:52:10;37.60;23.00
32640;DHT22;19049;52.524;11.468;2022-07-18T15:54:36;37.40;22.90
32640;DHT22;19049;52.524;11.468;2022-07-18T15:57:03;37.10;23.20
32640;DHT22;19049;52.524;11.468;2022-07-18T15:59:29;36.90;23.30
32640;DHT22;19049;52.524;11.468;2022-07-18T16:01:54;36.60;23.60
32640;DHT22;19049;52.524;11.468;2022-07-18T16:04:20;36.40;23.90